Time;durP1;ratioP1;P1;durP2;ratioP2;P2;SDS_P1;SDS_P2;PMS_P1;PMS_P2;Temp;Humidity;BMP_temperature;BMP_pressure;BME280_temperature;BME280_humidity;BME280_pressure;Samples;Min_cycle;Max_cycle;Signal;HPM_P1;HPM_P2
2022/07/26 00:01:01;;;;;;;10.50;2.53;;;;;;;18.99;95.72;101148.16;5174740;27;20094;-55
2022/07/26 00:03:31;;;;;;;8.77;2.15;;;;;;;18.98;95.55;101150.94;5172403;27;20034;-51
2022/07/26 00:05:59;;;;;;;9.25;2.08;;;;;;;18.90;96.21;101149.88;5152940;27;20046;-59
2022/07/26 00:08:27;;;;;;;10.82;2.40;;;;;;;18.95;96.41;101148.56;5175364;27;20069;-55
2022/07/26 00:10:55;;;;;;;12.00;2.35;;;;;;;18.98;96.24;101159.78;5174545;27;20042;-56
2022/07/26 00:13:23;;;;;;;11.88;1.98;;;;;;;18.97;96.07;101155.44;5175017;27;20053;-51
2022/07/26 00:15:57;;;;;;;9.18;2.15;;;;;;;18.98;95.46;101157.13;5174330;27;20034;-57
2022/07/26 00:18:26;;;;;;;12.05;2.20;;;;;;;18.95;95.39;101154.78;5175227;27;20061;-56
2022/07/26 00:20:55;;;;;;;12.30;2.17;;;;;;;18.99;94.79;101152.63;5174944;27;20531;-52
2022/07/26 00:23:24;;;;;;;9.98;2.50;;;;;;;19.04;94.87;101156.53;5174569;27;20046;-51
2022/07/26 00:25:52;;;;;;;12.77;2.33;;;;;;;19.01;95.02;101151.50;5174579;27;20058;-50
2022/07/26 00:28:20;;;;;;;8.77;2.10;;;;;;;19.04;94.58;101156.53;5174429;27;20484;-54
2022/07/26 00:30:48;;;;;;;9.27;2.38;;;;;;;19.02;94.32;101153.19;5175160;27;20117;-51
2022/07/26 00:33:17;;;;;;;7.78;2.05;;;;;;;18.96;94.97;101156.44;5174281;27;20693;-51
2022/07/26 00:35:45;;;;;;;8.43;1.95;;;;;;;18.97;94.59;101157.28;5170889;27;20062;-50
2022/07/26 00:38:14;;;;;;;7.20;1.50;;;;;;;18.96;94.97;101159.09;5152360;27;20050;-54
2022/07/26 00:40:42;;;;;;;10.13;2.40;;;;;;;18.95;95.59;101168.09;5173147;27;20042;-55
2022/07/26 00:43:10;;;;;;;9.02;2.05;;;;;;;18.98;94.63;101164.25;5174250;27;20042;-53
2022/07/26 00:45:38;;;;;;;9.80;2.15;;;;;;;18.96;94.45;101160.94;5174635;27;20072;-53
2022/07/26 00:48:07;;;;;;;7.47;2.30;;;;;;;18.91;94.66;101158.72;5174508;27;20133;-57
2022/07/26 00:50:35;;;;;;;10.85;2.33;;;;;;;18.85;94.41;101161.91;5174645;27;20050;-55
2022/07/26 00:53:03;;;;;;;8.15;2.00;;;;;;;18.90;94.84;101160.53;5174708;27;20441;-52
2022/07/26 00:55:33;;;;;;;8.52;2.05;;;;;;;18.90;94.74;101170.34;5174259;27;20548;-52
2022/07/26 00:58:01;;;;;;;11.13;2.72;;;;;;;18.92;94.14;101163.03;5174372;27;20042;-53
2022/07/26 01:00:29;;;;;;;7.75;2.00;;;;;;;18.96;93.72;101167.09;5174321;27;20475;-54
2022/07/26 01:02:59;;;;;;;8.70;2.40;;;;;;;18.91;94.00;101169.38;5174877;27;20034;-53
2022/07/26 01:05:27;;;;;;;6.47;1.70;;;;;;;18.93;93.94;101167.38;5174406;27;20133;-55
2022/07/26 01:07:56;;;;;;;10.75;1.80;;;;;;;18.88;94.29;101173.16;5174348;27;20098;-51
2022/07/26 01:10:24;;;;;;;9.25;1.98;;;;;;;18.86;94.29;101166.28;5173618;27;20087;-55
2022/07/26 01:12:54;;;;;;;7.95;2.08;;;;;;;18.87;94.17;101165.25;5174465;27;20042;-52
2022/07/26 01:15:22;;;;;;;7.45;1.95;;;;;;;18.78;94.73;101163.50;5171990;27;20095;-53
2022/07/26 01:17:50;;;;;;;11.10;2.30;;;;;;;18.84;94.64;101160.22;5172223;27;20034;-56
2022/07/26 01:20:18;;;;;;;7.53;1.90;;;;;;;18.86;94.78;101155.63;5173005;27;20077;-50
2022/07/26 01:22:47;;;;;;;6.88;2.08;;;;;;;18.85;94.66;101159.25;5176842;27;20050;-53
2022/07/26 01:25:16;;;;;;;8.25;2.30;;;;;;;18.83;94.74;101156.75;5178092;27;20030;-53
2022/07/26 01:27:44;;;;;;;6.38;2.00;;;;;;;18.85;95.20;101157.41;5178451;27;20395;-55
2022/07/26 01:30:13;;;;;;;11.75;2.80;;;;;;;18.77;95.28;101151.16;5177793;27;20087;-52
2022/07/26 01:32:41;;;;;;;10.05;2.45;;;;;;;18.77;95.39;101148.50;5178130;27;20054;-51
2022/07/26 01:35:10;;;;;;;6.78;2.03;;;;;;;18.72;95.79;101147.09;5178026;27;20389;-51
2022/07/26 01:37:38;;;;;;;11.15;2.08;;;;;;;18.76;95.93;101147.66;5177886;27;20495;-50
2022/07/26 01:40:09;;;;;;;14.00;2.67;;;;;;;18.77;95.78;101144.00;5178048;27;20369;-51
2022/07/26 01:42:39;;;;;;;11.57;2.38;;;;;;;18.77;96.23;101149.31;5178463;27;20064;-53
2022/07/26 01:45:09;;;;;;;10.65;2.28;;;;;;;18.74;96.29;101150.44;5175033;27;20056;-52
2022/07/26 01:47:37;;;;;;;9.48;2.15;;;;;;;18.67;96.25;101149.38;5175383;27;20046;-56
2022/07/26 01:50:07;;;;;;;9.98;2.15;;;;;;;18.62;96.98;101154.28;5177862;27;20680;-58
2022/07/26 01:52:36;;;;;;;16.42;2.95;;;;;;;18.61;97.27;101157.94;5177884;27;20057;-57
2022/07/26 01:55:04;;;;;;;10.35;2.60;;;;;;;18.51;98.13;101157.13;5177671;27;20085;-56
2022/07/26 01:57:34;;;;;;;15.55;2.30;;;;;;;18.52;98.16;101162.31;5177463;27;20049;-50
2022/07/26 02:00:04;;;;;;;10.68;2.55;;;;;;;18.53;98.55;101160.50;5177761;27;20129;-52
2022/07/26 02:02:32;;;;;;;14.88;2.45;;;;;;;18.48;99.18;101163.56;5177845;27;20545;-53
2022/07/26 02:05:00;;;;;;;10.90;3.05;;;;;;;18.45;99.59;101161.22;5175380;27;20031;-57
2022/07/26 02:07:31;;;;;;;12.60;2.78;;;;;;;18.44;99.77;101169.34;5157143;27;20098;-57
2022/07/26 02:10:00;;;;;;;12.13;2.45;;;;;;;18.41;100.00;101165.13;5177191;27;20107;-57
2022/07/26 02:12:29;;;;;;;11.32;2.28;;;;;;;18.45;100.00;101166.53;5166700;27;20069;-54
2022/07/26 02:14:59;;;;;;;10.80;2.38;;;;;;;18.42;100.00;101164.16;5177985;27;20121;-52
2022/07/26 02:17:27;;;;;;;15.00;3.28;;;;;;;18.39;100.00;101173.28;5175563;27;20053;-58
2022/07/26 02:19:55;;;;;;;8.02;2.40;;;;;;;18.38;100.00;101171.59;5170095;27;20042;-55
2022/07/26 02:22:23;;;;;;;11.48;2.90;;;;;;;18.39;100.00;101169.75;5175229;27;20046;-53
2022/07/26 02:24:51;;;;;;;13.40;2.65;;;;;;;18.38;100.00;101165.44;5177584;27;20050;-57
2022/07/26 02:27:19;;;;;;;11.00;2.33;;;;;;;18.38;100.00;101162.78;5177247;27;20057;-57
2022/07/26 02:29:48;;;;;;;11.45;2.50;;;;;;;18.39;100.00;101167.94;5175755;27;20091;-54
2022/07/26 02:32:17;;;;;;;11.65;3.10;;;;;;;18.42;100.00;101166.84;5155636;27;20046;-57
2022/07/26 02:34:45;;;;;;;11.43;2.80;;;;;;;18.42;100.00;101172.97;5174793;27;20046;-53
2022/07/26 02:37:13;;;;;;;11.55;2.72;;;;;;;18.47;100.00;101171.72;5176561;27;20042;-55
2022/07/26 02:39:41;;;;;;;11.70;3.20;;;;;;;18.48;100.00;101171.56;5176346;27;20133;-56
2022/07/26 02:42:09;;;;;;;12.63;2.97;;;;;;;18.28;100.00;101168.09;5176785;27;20046;-52
2022/07/26 02:44:37;;;;;;;11.90;3.03;;;;;;;18.34;100.00;101169.38;5176195;27;20077;-51
2022/07/26 02:47:05;;;;;;;9.40;2.75;;;;;;;18.30;100.00;101171.47;5176942;27;20034;-57
2022/07/26 02:49:35;;;;;;;12.80;3.15;;;;;;;18.29;100.00;101176.94;5176220;27;20042;-57
2022/07/26 02:52:03;;;;;;;11.05;2.75;;;;;;;18.27;100.00;101178.88;5176640;27;20061;-51
2022/07/26 02:54:31;;;;;;;12.10;3.30;;;;;;;18.31;100.00;101186.47;5176163;27;20121;-54
2022/07/26 02:56:59;;;;;;;13.18;3.72;;;;;;;18.29;100.00;101187.59;5176568;27;20537;-54
2022/07/26 02:59:27;;;;;;;11.82;3.28;;;;;;;18.29;100.00;101196.41;5174605;27;20464;-57
2022/07/26 03:01:55;;;;;;;10.35;3.00;;;;;;;18.35;100.00;101200.31;5173521;27;20060;-51
2022/07/26 03:04:23;;;;;;;11.23;2.92;;;;;;;18.34;100.00;101186.16;5175640;27;20065;-56
2022/07/26 03:06:53;;;;;;;9.65;3.00;;;;;;;18.33;100.00;101195.13;5176310;27;20385;-57
2022/07/26 03:09:21;;;;;;;9.25;2.80;;;;;;;18.41;100.00;101189.94;5176323;27;20091;-53
2022/07/26 03:11:49;;;;;;;12.65;3.38;;;;;;;18.39;100.00;101193.72;5176346;27;20050;-51
2022/07/26 03:14:17;;;;;;;9.73;3.10;;;;;;;18.38;100.00;101197.38;5175680;27;20045;-50
2022/07/26 03:16:45;;;;;;;10.95;3.50;;;;;;;18.35;100.00;101201.16;5172757;27;20058;-57
2022/07/26 03:19:13;;;;;;;11.05;3.33;;;;;;;18.36;100.00;101204.66;5172680;27;20046;-56
2022/07/26 03:21:41;;;;;;;10.15;3.20;;;;;;;18.40;100.00;101212.22;5174596;27;20046;-49
2022/07/26 03:24:10;;;;;;;7.95;2.88;;;;;;;18.39;100.00;101210.56;5173137;27;20050;-53
2022/07/26 03:26:38;;;;;;;10.80;3.35;;;;;;;18.42;100.00;101218.25;5156073;27;20074;-57
2022/07/26 03:29:07;;;;;;;9.52;3.15;;;;;;;18.32;100.00;101220.06;5173977;27;20070;-54
2022/07/26 03:31:35;;;;;;;9.60;2.97;;;;;;;18.31;100.00;101218.41;5173255;27;20055;-57
2022/07/26 03:34:03;;;;;;;9.70;3.08;;;;;;;18.31;100.00;101218.41;5175756;27;20046;-52
2022/07/26 03:36:32;;;;;;;8.77;2.83;;;;;;;18.32;100.00;101225.38;5175617;27;20050;-52
2022/07/26 03:39:00;;;;;;;13.70;4.13;;;;;;;18.34;100.00;101225.28;5156945;27;20056;-53
2022/07/26 03:41:30;;;;;;;9.32;3.47;;;;;;;18.34;100.00;101215.44;5175941;27;20161;-54
2022/07/26 03:43:58;;;;;;;9.60;3.10;;;;;;;18.36;100.00;101221.47;5175324;27;20066;-56
2022/07/26 03:46:27;;;;;;;7.05;3.08;;;;;;;18.31;100.00;101221.06;5174152;27;20034;-49
2022/07/26 03:48:56;;;;;;;11.90;3.55;;;;;;;18.38;100.00;101219.50;5155674;27;20400;-57
2022/07/26 03:51:24;;;;;;;10.25;3.75;;;;;;;18.20;100.00;101214.06;5170538;27;20042;-56
2022/07/26 03:53:52;;;;;;;10.73;3.05;;;;;;;18.29;100.00;101225.69;5174052;27;20057;-57
2022/07/26 03:56:30;;;;;;;11.30;3.45;;;;;;;18.32;100.00;101228.06;5175259;27;20050;-53
2022/07/26 03:59:01;;;;;;;11.45;3.97;;;;;;;18.27;100.00;101229.47;5172560;27;20042;-57
2022/07/26 04:01:30;;;;;;;11.93;3.67;;;;;;;18.23;100.00;101236.91;5172879;27;20044;-56
2022/07/26 04:03:58;;;;;;;11.15;3.70;;;;;;;18.23;100.00;101240.41;5156536;27;20042;-57
2022/07/26 04:06:28;;;;;;;13.48;3.55;;;;;;;18.23;100.00;101243.06;5175013;27;20026;-54
2022/07/26 04:08:56;;;;;;;11.68;4.30;;;;;;;18.16;100.00;101243.75;5156451;27;20446;-51
2022/07/26 04:11:24;;;;;;;8.25;3.40;;;;;;;18.21;100.00;101244.19;5174586;27;20042;-56
2022/07/26 04:13:55;;;;;;;11.05;3.78;;;;;;;18.19;100.00;101246.97;5172694;27;20049;-54
2022/07/26 04:16:25;;;;;;;10.07;3.50;;;;;;;18.18;100.00;101249.78;5172333;27;20117;-57
2022/07/26 04:18:54;;;;;;;10.77;4.20;;;;;;;18.10;100.00;101249.66;5159596;27;20049;-56
2022/07/26 04:21:23;;;;;;;11.35;3.67;;;;;;;17.96;100.00;101254.41;5154165;27;20046;-53
2022/07/26 04:23:51;;;;;;;10.70;3.80;;;;;;;17.94;100.00;101256.34;5153964;27;20058;-56
2022/07/26 04:26:20;;;;;;;11.00;3.50;;;;;;;17.99;100.00;101256.78;5153453;27;20095;-52
2022/07/26 04:28:48;;;;;;;10.27;3.25;;;;;;;18.01;100.00;101257.50;5132864;27;20073;-55
2022/07/26 04:31:17;;;;;;;13.95;3.58;;;;;;;17.96;100.00;101259.72;5134420;27;20153;-57
2022/07/26 04:33:46;;;;;;;8.70;3.28;;;;;;;17.97;100.00;101263.22;5162330;27;20042;-51
2022/07/26 04:36:15;;;;;;;14.80;4.43;;;;;;;18.03;100.00;101268.00;5170085;27;20414;-52
2022/07/26 04:38:43;;;;;;;11.25;3.50;;;;;;;17.97;100.00;101265.88;5158850;27;20043;-52
2022/07/26 04:41:11;;;;;;;12.20;4.10;;;;;;;18.04;100.00;101273.16;5154026;27;20497;-57
2022/07/26 04:43:39;;;;;;;10.10;3.78;;;;;;;18.01;100.00;101268.13;5153933;27;20069;-50
2022/07/26 04:46:07;;;;;;;11.48;3.55;;;;;;;18.02;100.00;101261.81;5154221;27;20420;-56
2022/07/26 04:48:37;;;;;;;12.88;3.42;;;;;;;18.07;100.00;101264.91;5161142;27;20070;-50
2022/07/26 04:51:07;;;;;;;10.20;3.63;;;;;;;18.06;100.00;101267.72;5170320;27;20071;-48
2022/07/26 04:53:35;;;;;;;13.23;4.50;;;;;;;18.04;100.00;101265.19;5170201;27;20042;-54
2022/07/26 04:56:04;;;;;;;12.07;4.35;;;;;;;17.99;100.00;101271.91;5169343;27;20038;-56
2022/07/26 04:58:32;;;;;;;13.07;3.85;;;;;;;18.00;100.00;101269.09;5159024;27;20115;-53
2022/07/26 05:01:00;;;;;;;16.42;4.25;;;;;;;18.08;100.00;101271.91;5179295;27;20048;-57
2022/07/26 05:03:37;;;;;;;10.45;3.50;;;;;;;18.00;100.00;101277.09;5177943;27;20118;-52
2022/07/26 05:06:07;;;;;;;10.05;3.80;;;;;;;18.03;100.00;101268.00;5179974;27;20042;-52
2022/07/26 05:08:35;;;;;;;10.25;3.75;;;;;;;18.02;100.00;101275.13;5179293;27;20518;-51
2022/07/26 05:11:03;;;;;;;11.30;4.30;;;;;;;18.07;100.00;101282.69;5160354;27;20039;-51
2022/07/26 05:13:31;;;;;;;12.82;4.05;;;;;;;18.13;100.00;101286.63;5178881;27;20030;-52
2022/07/26 05:16:00;;;;;;;14.13;4.60;;;;;;;18.16;100.00;101281.88;5177250;27;20098;-52
2022/07/26 05:18:30;;;;;;;11.88;4.03;;;;;;;18.20;100.00;101293.94;5179266;27;20477;-55
2022/07/26 05:21:18;;;;;;;11.98;3.97;;;;;;;18.27;100.00;101296.88;5178868;27;20718;-53
2022/07/26 05:23:46;;;;;;;14.18;3.85;;;;;;;18.25;100.00;101293.50;5177381;27;20497;-53
2022/07/26 05:26:14;;;;;;;11.75;4.07;;;;;;;18.33;100.00;101301.63;5179116;27;20091;-51
2022/07/26 05:28:43;;;;;;;10.70;3.42;;;;;;;18.37;100.00;101305.69;5178806;27;20038;-53
2022/07/26 05:31:11;;;;;;;14.50;3.72;;;;;;;18.36;100.00;101309.31;5177556;27;20034;-52
2022/07/26 05:33:39;;;;;;;10.27;4.25;;;;;;;18.46;100.00;101305.81;5179564;27;20125;-55
2022/07/26 05:36:07;;;;;;;14.73;4.32;;;;;;;18.54;100.00;101306.81;5179616;27;20061;-55
2022/07/26 05:38:37;;;;;;;13.20;3.97;;;;;;;18.63;100.00;101299.78;5177389;27;20041;-54
2022/07/26 05:41:05;;;;;;;12.20;3.50;;;;;;;18.68;100.00;101294.03;5179726;27;20045;-55
2022/07/26 05:43:34;;;;;;;12.10;3.40;;;;;;;18.70;100.00;101292.91;5179625;27;20140;-50
2022/07/26 05:46:10;;;;;;;8.88;2.97;;;;;;;18.71;100.00;101299.09;5179607;27;20049;-56
2022/07/26 05:48:38;;;;;;;7.72;2.63;;;;;;;18.72;100.00;101306.94;5178424;27;20531;-55
2022/07/26 05:51:22;;;;;;;11.30;3.28;;;;;;;18.78;100.00;101302.03;5126458;27;20094;-51
2022/07/26 05:53:51;;;;;;;8.48;3.00;;;;;;;18.82;100.00;101309.59;5179606;27;20046;-54
2022/07/26 05:56:20;;;;;;;14.23;3.25;;;;;;;18.88;100.00;101316.19;5161208;27;20042;-55
2022/07/26 05:58:48;;;;;;;12.52;2.90;;;;;;;18.89;100.00;101317.88;5179538;27;20034;-56
2022/07/26 06:01:16;;;;;;;10.48;3.03;;;;;;;18.97;100.00;101323.34;5176010;27;20035;-57
2022/07/26 06:03:46;;;;;;;11.88;2.88;;;;;;;18.97;100.00;101320.66;5179335;27;20038;-57
2022/07/26 06:06:14;;;;;;;10.93;3.15;;;;;;;19.09;100.00;101329.34;5179961;27;20030;-50
2022/07/26 06:08:42;;;;;;;8.95;2.78;;;;;;;19.20;100.00;101331.00;5176246;27;20042;-57
2022/07/26 06:11:12;;;;;;;10.13;2.47;;;;;;;19.27;100.00;101320.59;5173777;27;20038;-52
2022/07/26 06:13:40;;;;;;;8.63;2.30;;;;;;;19.31;100.00;101327.31;5157711;27;20053;-54
2022/07/26 06:16:08;;;;;;;6.20;2.30;;;;;;;19.40;100.00;101327.28;5177054;27;20113;-56
2022/07/26 06:18:37;;;;;;;9.05;1.92;;;;;;;19.50;100.00;101329.09;5176455;27;20080;-53
2022/07/26 06:21:07;;;;;;;11.65;3.03;;;;;;;19.55;100.00;101332.13;5176984;27;20057;-58
2022/07/26 06:23:36;;;;;;;7.47;2.20;;;;;;;19.66;100.00;101328.44;5176382;27;20085;-53
2022/07/26 06:26:04;;;;;;;5.43;2.03;;;;;;;19.72;100.00;101331.34;5177403;27;20050;-52
2022/07/26 06:28:33;;;;;;;8.50;2.33;;;;;;;19.81;100.00;101329.66;5177378;27;20091;-54
2022/07/26 06:31:01;;;;;;;6.70;1.70;;;;;;;19.90;99.27;101333.25;5177286;27;20556;-53
2022/07/26 06:33:30;;;;;;;5.93;1.77;;;;;;;19.96;99.40;101334.47;5177483;27;20053;-54
2022/07/26 06:35:59;;;;;;;4.60;1.52;;;;;;;19.93;97.97;101338.28;5177349;27;20046;-57
2022/07/26 06:38:27;;;;;;;6.68;1.90;;;;;;;20.03;98.12;101333.75;5177013;27;20038;-58
2022/07/26 06:40:55;;;;;;;5.68;1.63;;;;;;;20.09;96.41;101332.31;5176755;27;20042;-52
2022/07/26 06:43:23;;;;;;;5.82;1.80;;;;;;;20.12;96.40;101334.66;5176431;27;20050;-53
2022/07/26 06:45:53;;;;;;;5.45;1.95;;;;;;;20.20;95.54;101340.09;5176886;27;20050;-58
2022/07/26 06:48:21;;;;;;;7.68;1.50;;;;;;;20.25;94.63;101339.66;5176597;27;20438;-52
2022/07/26 06:50:49;;;;;;;8.70;1.83;;;;;;;20.23;94.62;101342.47;5176436;27;20046;-53
2022/07/26 06:53:18;;;;;;;7.05;1.77;;;;;;;20.16;94.57;101341.38;5157986;27;20050;-54
2022/07/26 06:55:46;;;;;;;4.50;1.70;;;;;;;20.21;94.72;101341.78;5176757;27;20035;-58
2022/07/26 06:58:14;;;;;;;9.00;2.05;;;;;;;20.26;95.35;101344.00;5173869;27;20041;-51
2022/07/26 07:00:42;;;;;;;6.43;1.70;;;;;;;20.31;93.28;101340.88;5174449;27;20030;-56
2022/07/26 07:03:12;;;;;;;4.43;1.35;;;;;;;20.08;92.80;101347.50;5176626;27;20054;-50
2022/07/26 07:05:41;;;;;;;5.80;1.60;;;;;;;20.14;93.45;101346.03;5157844;27;20046;-53
2022/07/26 07:08:16;;;;;;;7.88;2.33;;;;;;;20.21;93.49;101362.31;5176500;27;20038;-51
2022/07/26 07:10:45;;;;;;;4.20;1.40;;;;;;;20.26;92.75;101360.84;5174267;27;20137;-52
2022/07/26 07:13:13;;;;;;;7.63;1.67;;;;;;;20.36;91.91;101360.78;5155985;27;20042;-57
2022/07/26 07:15:41;;;;;;;6.20;2.05;;;;;;;20.53;92.34;101361.78;5175297;27;20564;-49
2022/07/26 07:18:09;;;;;;;4.70;1.60;;;;;;;20.58;91.73;101358.66;5173574;27;20145;-56
2022/07/26 07:20:39;;;;;;;5.43;1.70;;;;;;;20.40;92.56;101356.81;5175355;27;20099;-53
2022/07/26 07:23:07;;;;;;;5.07;1.60;;;;;;;20.30;95.61;101366.75;5173540;27;20057;-56
2022/07/26 07:25:35;;;;;;;6.18;1.67;;;;;;;20.25;98.06;101369.03;5174199;27;20050;-52
2022/07/26 07:28:04;;;;;;;5.22;1.80;;;;;;;20.17;100.00;101382.28;5176146;27;20042;-51
2022/07/26 07:30:32;;;;;;;8.02;1.92;;;;;;;19.71;100.00;101390.19;5157307;27;20079;-51
2022/07/26 07:33:00;;;;;;;4.53;1.70;;;;;;;19.36;100.00;101397.91;5176075;27;20049;-50
2022/07/26 07:35:30;;;;;;;5.80;1.60;;;;;;;19.23;100.00;101395.53;5176187;27;20050;-51
2022/07/26 07:38:01;;;;;;;7.22;1.60;;;;;;;19.08;100.00;101404.97;5175755;27;20035;-52
2022/07/26 07:40:29;;;;;;;5.03;1.30;;;;;;;18.85;100.00;101401.72;5175709;27;20098;-49
2022/07/26 07:42:59;;;;;;;5.53;1.30;;;;;;;18.69;100.00;101403.13;5175714;27;20393;-49
2022/07/26 07:45:27;;;;;;;6.00;1.52;;;;;;;18.56;100.00;101407.88;5175479;27;20050;-50
2022/07/26 07:47:55;;;;;;;5.60;1.77;;;;;;;18.88;100.00;101410.31;5175842;27;20069;-51
2022/07/26 07:50:24;;;;;;;6.95;1.80;;;;;;;18.72;100.00;101418.81;5175637;27;20049;-50
2022/07/26 07:52:55;;;;;;;5.03;1.88;;;;;;;18.63;100.00;101419.66;5174901;27;20145;-53
2022/07/26 07:55:27;;;;;;;4.50;2.00;;;;;;;18.62;100.00;101420.63;5173162;27;20075;-52
2022/07/26 07:58:14;;;;;;;8.70;3.70;;;;;;;18.52;100.00;101430.44;5174602;27;20046;-49
2022/07/26 08:00:44;;;;;;;8.20;4.57;;;;;;;18.49;100.00;101426.22;5175207;27;20098;-52
2022/07/26 08:03:13;;;;;;;9.23;3.47;;;;;;;18.56;100.00;101434.50;5173844;27;20038;-51
2022/07/26 08:05:46;;;;;;;8.35;2.92;;;;;;;18.65;100.00;101439.03;5170692;27;20050;-52
2022/07/26 08:08:18;;;;;;;4.83;1.47;;;;;;;18.63;100.00;101448.97;5174061;27;20042;-50
2022/07/26 08:10:52;;;;;;;6.82;1.83;;;;;;;18.56;100.00;101451.31;5174881;27;20042;-52
2022/07/26 08:13:21;;;;;;;5.78;1.10;;;;;;;18.39;100.00;101455.50;5174660;27;20400;-50
2022/07/26 08:15:50;;;;;;;4.70;1.13;;;;;;;18.42;100.00;101455.22;5173867;27;20077;-53
2022/07/26 08:18:18;;;;;;;5.55;1.10;;;;;;;18.36;100.00;101460.25;5172392;27;20046;-47
2022/07/26 08:20:50;;;;;;;5.75;1.20;;;;;;;18.25;100.00;101461.19;5174450;27;20042;-48
2022/07/26 08:23:18;;;;;;;3.83;1.17;;;;;;;18.10;100.00;101468.72;5172433;27;20046;-48
2022/07/26 08:25:47;;;;;;;5.00;1.10;;;;;;;18.13;100.00;101462.28;5172895;27;20038;-49
2022/07/26 08:28:26;;;;;;;2.90;1.00;;;;;;;18.19;100.00;101472.41;5175112;27;20565;-51
2022/07/26 08:31:14;;;;;;;3.75;0.90;;;;;;;18.16;100.00;101472.66;5171728;27;20054;-50
2022/07/26 08:33:42;;;;;;;4.40;1.13;;;;;;;17.98;100.00;101483.09;5172278;27;20046;-51
2022/07/26 08:36:13;;;;;;;3.22;1.00;;;;;;;18.05;100.00;101485.09;5174884;27;20134;-50
2022/07/26 08:38:41;;;;;;;2.95;0.90;;;;;;;18.09;100.00;101475.00;5174766;27;20121;-52
2022/07/26 08:41:09;;;;;;;1.92;0.90;;;;;;;18.27;100.00;101482.34;5173327;27;20441;-53
2022/07/26 08:43:39;;;;;;;1.70;0.77;;;;;;;18.29;100.00;101491.06;5172015;27;20114;-52
2022/07/26 08:46:19;;;;;;;3.05;1.00;;;;;;;18.23;100.00;101493.28;5174124;27;20380;-52
2022/07/26 08:48:53;;;;;;;2.72;0.80;;;;;;;18.20;100.00;101498.03;5172300;27;20125;-54
2022/07/26 08:51:24;;;;;;;2.47;0.90;;;;;;;18.28;100.00;101500.03;5171431;27;20093;-54
2022/07/26 08:53:55;;;;;;;3.50;0.80;;;;;;;18.46;100.00;101498.41;5175005;27;20043;-55
2022/07/26 08:56:32;;;;;;;2.80;1.05;;;;;;;18.24;100.00;101513.63;5174647;27;20040;-54
2022/07/26 08:59:05;;;;;;;1.40;0.68;;;;;;;18.35;100.00;101504.69;5174441;27;20366;-54
2022/07/26 09:01:34;;;;;;;1.35;0.70;;;;;;;18.33;100.00;101514.63;5172026;27;20069;-55
2022/07/26 09:04:17;;;;;;;4.07;1.00;;;;;;;18.33;100.00;101501.31;5172874;27;20042;-57
2022/07/26 09:07:03;;;;;;;4.57;1.10;;;;;;;18.53;100.00;101501.38;5174516;27;20046;-54
2022/07/26 09:09:33;;;;;;;3.15;1.10;;;;;;;18.56;100.00;101501.09;5173784;27;20038;-53
2022/07/26 09:12:14;;;;;;;2.72;0.90;;;;;;;18.81;100.00;101504.22;5173962;27;20075;-50
2022/07/26 09:14:45;;;;;;;4.28;1.02;;;;;;;18.86;100.00;101510.81;5174199;27;20050;-52
2022/07/26 09:17:14;;;;;;;4.10;1.00;;;;;;;18.79;100.00;101519.50;5155763;27;20050;-48
2022/07/26 09:19:43;;;;;;;5.38;1.13;;;;;;;18.81;100.00;101528.22;5171755;27;20085;-50
2022/07/26 09:22:13;;;;;;;2.40;0.75;;;;;;;18.79;100.00;101532.81;5170097;27;20050;-53
2022/07/26 09:24:42;;;;;;;2.85;0.90;;;;;;;18.84;100.00;101533.25;5174280;27;20038;-53
2022/07/26 09:27:12;;;;;;;3.80;1.38;;;;;;;18.79;100.00;101530.16;5174325;27;20481;-52
2022/07/26 09:29:46;;;;;;;2.50;0.70;;;;;;;18.92;100.00;101538.78;5174340;27;20042;-53
2022/07/26 09:32:17;;;;;;;2.28;0.70;;;;;;;18.89;100.00;101531.06;5173706;27;20038;-48
2022/07/26 09:34:47;;;;;;;2.63;0.73;;;;;;;19.04;100.00;101534.16;5172179;27;20121;-50
2022/07/26 09:37:34;;;;;;;2.97;0.95;;;;;;;19.09;100.00;101545.25;5171350;27;20469;-51
2022/07/26 09:40:05;;;;;;;2.47;0.70;;;;;;;19.09;100.00;101548.75;5174188;27;20049;-53
2022/07/26 09:42:33;;;;;;;2.45;0.52;;;;;;;19.36;100.00;101555.25;5174415;27;20484;-51
2022/07/26 09:45:04;;;;;;;2.70;0.68;;;;;;;19.37;100.00;101551.59;5175230;27;20540;-49
2022/07/26 09:47:36;;;;;;;3.70;0.80;;;;;;;19.53;100.00;101556.34;5176344;27;20081;-50
2022/07/26 09:50:13;;;;;;;5.15;0.95;;;;;;;19.37;100.00;101551.59;5178080;27;20567;-55
2022/07/26 09:52:57;;;;;;;2.85;0.60;;;;;;;19.47;100.00;101556.91;5177860;27;20519;-51
2022/07/26 09:55:25;;;;;;;2.67;0.65;;;;;;;19.43;100.00;101545.69;5175304;27;20083;-48
2022/07/26 09:58:02;;;;;;;2.38;0.60;;;;;;;19.48;99.11;101552.41;5176041;27;20432;-50
2022/07/26 10:00:33;;;;;;;5.60;0.75;;;;;;;19.61;96.75;101554.81;5177822;27;20034;-48
2022/07/26 10:03:01;;;;;;;4.47;0.60;;;;;;;19.89;100.00;101561.09;5177840;27;20042;-55
2022/07/26 10:05:29;;;;;;;4.40;0.70;;;;;;;19.99;99.67;101559.25;5158937;27;20073;-53
2022/07/26 10:07:58;;;;;;;4.03;0.60;;;;;;;20.13;100.00;101562.47;5175148;27;20042;-52
2022/07/26 10:10:30;;;;;;;6.10;0.90;;;;;;;20.21;98.38;101560.72;5175630;27;20038;-51
2022/07/26 10:13:01;;;;;;;6.65;0.95;;;;;;;20.17;94.95;101564.69;5177685;27;20042;-49
2022/07/26 10:15:40;;;;;;;3.92;1.10;;;;;;;20.17;94.89;101575.34;5175760;27;20038;-52
2022/07/26 10:18:11;;;;;;;4.90;0.90;;;;;;;20.23;94.33;101572.13;5174847;27;20042;-54
2022/07/26 10:20:47;;;;;;;5.03;0.70;;;;;;;20.41;91.81;101579.34;5177674;27;20125;-56
2022/07/26 10:23:39;;;;;;;4.18;1.08;;;;;;;20.68;96.95;101589.25;5177591;27;20107;-57
2022/07/26 10:26:10;;;;;;;3.58;0.80;;;;;;;20.64;97.21;101582.47;5177719;27;20054;-56
2022/07/26 10:28:40;;;;;;;4.20;1.00;;;;;;;20.82;98.85;101577.22;5177562;27;20129;-57
2022/07/26 10:31:31;;;;;;;3.83;0.82;;;;;;;21.00;94.29;101585.28;5177348;27;20091;-57
2022/07/26 10:34:01;;;;;;;5.07;0.82;;;;;;;21.09;93.40;101586.19;5177401;27;20134;-56
2022/07/26 10:36:34;;;;;;;3.90;0.70;;;;;;;20.75;90.38;101603.69;5173338;27;20050;-56
2022/07/26 10:39:08;;;;;;;2.00;0.60;;;;;;;20.55;94.45;101610.09;5174842;27;20414;-55
2022/07/26 10:41:39;;;;;;;1.40;0.60;;;;;;;20.07;99.29;101620.78;5158248;27;20065;-53
2022/07/26 10:44:15;;;;;;;2.72;0.60;;;;;;;19.80;100.00;101618.84;5176848;27;20058;-52
2022/07/26 10:47:04;;;;;;;3.40;0.90;;;;;;;19.45;100.00;101614.88;5174853;27;20046;-52
2022/07/26 10:49:35;;;;;;;3.28;0.75;;;;;;;19.29;100.00;101615.41;5174238;27;20489;-51
2022/07/26 10:52:15;;;;;;;3.33;0.73;;;;;;;19.18;100.00;101615.56;5176897;27;20034;-56
2022/07/26 10:55:06;;;;;;;3.22;0.63;;;;;;;19.29;100.00;101611.94;5176210;27;20061;-56
2022/07/26 10:57:36;;;;;;;2.97;0.85;;;;;;;19.51;100.00;101610.81;5176688;27;20053;-55
2022/07/26 11:00:10;;;;;;;2.60;0.63;;;;;;;19.56;100.00;101609.41;5176845;27;20042;-55
2022/07/26 11:02:42;;;;;;;3.60;0.70;;;;;;;19.31;100.00;101616.13;5175750;27;20396;-53
2022/07/26 11:05:15;;;;;;;2.70;0.60;;;;;;;19.34;100.00;101615.84;5172649;27;20045;-54
2022/07/26 11:08:03;;;;;;;4.70;0.70;;;;;;;19.77;100.00;101619.09;5156596;27;20050;-55
2022/07/26 11:10:34;;;;;;;2.50;0.68;;;;;;;19.97;100.00;101622.59;5176365;27;20039;-56
2022/07/26 11:13:09;;;;;;;3.88;1.08;;;;;;;20.32;100.00;101621.13;5175230;27;20053;-55
2022/07/26 11:15:39;;;;;;;5.47;1.08;;;;;;;20.47;100.00;101626.84;5174224;27;20042;-54
2022/07/26 11:18:20;;;;;;;5.68;0.85;;;;;;;20.68;100.00;101624.00;5175579;27;20090;-57
2022/07/26 11:20:52;;;;;;;4.38;0.90;;;;;;;21.00;100.00;101619.19;5176593;27;20054;-51
2022/07/26 11:23:30;;;;;;;5.70;1.13;;;;;;;21.10;100.00;101615.47;5175157;27;20110;-50
2022/07/26 11:26:06;;;;;;;5.95;0.82;;;;;;;21.19;95.24;101620.91;5174018;27;20048;-54
2022/07/26 11:29:04;;;;;;;3.92;0.70;;;;;;;21.26;91.34;101621.97;5175537;27;20409;-58
2022/07/26 11:31:38;;;;;;;3.08;0.63;;;;;;;21.35;92.23;101618.41;5111659;28;20048;-57